createdAt,value
2023-01-31T00:01:19.558Z,7.73
2023-01-31T00:03:48.004Z,7.17
2023-01-31T00:06:30.202Z,7.40
2023-01-31T00:08:58.296Z,7.17
2023-01-31T00:11:26.435Z,6.97
2023-01-31T00:13:53.373Z,7.87
2023-01-31T00:16:21.144Z,8.13
2023-01-31T00:18:47.954Z,8.00
2023-01-31T00:21:23.070Z,7.23
2023-01-31T00:23:50.358Z,8.03
2023-01-31T00:26:22.251Z,7.30
2023-01-31T00:28:50.273Z,7.77
2023-01-31T00:31:17.952Z,7.93
2023-01-31T00:33:46.439Z,8.17
2023-01-31T00:36:15.785Z,7.93
2023-01-31T00:38:42.596Z,6.50
2023-01-31T00:41:09.295Z,6.93
2023-01-31T00:43:36.071Z,7.30
2023-01-31T00:46:02.586Z,7.77
2023-01-31T00:48:29.225Z,7.87
2023-01-31T00:50:55.684Z,6.77
2023-01-31T00:53:23.929Z,8.13
2023-01-31T00:55:51.430Z,7.50
2023-01-31T00:58:18.582Z,6.97
2023-01-31T01:00:45.294Z,7.80
2023-01-31T01:03:11.920Z,6.77
2023-01-31T01:05:38.459Z,7.13
2023-01-31T01:08:05.213Z,7.00
2023-01-31T01:10:32.175Z,6.90
2023-01-31T01:12:58.842Z,7.07
2023-01-31T01:15:25.314Z,7.13
2023-01-31T01:17:51.893Z,6.73
2023-01-31T01:20:18.569Z,6.57
2023-01-31T01:22:45.036Z,7.00
2023-01-31T01:25:11.712Z,6.63
2023-01-31T01:27:38.202Z,7.43
2023-01-31T01:30:06.188Z,7.50
2023-01-31T01:32:33.169Z,7.13
2023-01-31T01:34:59.684Z,7.33
2023-01-31T01:37:26.144Z,6.93
2023-01-31T01:39:52.985Z,6.87
2023-01-31T01:42:22.240Z,7.87
2023-01-31T01:44:56.046Z,7.00
2023-01-31T01:47:50.135Z,7.20
2023-01-31T01:50:31.142Z,6.20
2023-01-31T01:53:06.433Z,7.50
2023-01-31T01:55:37.170Z,7.10
2023-01-31T01:58:29.255Z,7.23
2023-01-31T02:00:56.111Z,7.57
2023-01-31T02:03:22.678Z,6.90
2023-01-31T02:05:55.090Z,6.87
2023-01-31T02:08:23.976Z,5.97
2023-01-31T02:10:54.755Z,6.07
2023-01-31T02:13:21.590Z,6.93
2023-01-31T02:15:48.404Z,6.40
2023-01-31T02:18:15.491Z,6.93
2023-01-31T02:20:59.754Z,5.83
2023-01-31T02:23:58.575Z,5.93
2023-01-31T02:27:02.665Z,5.87
2023-01-31T02:29:56.987Z,6.37
2023-01-31T02:32:41.893Z,6.00
2023-01-31T02:35:27.092Z,6.13
2023-01-31T02:38:31.273Z,5.03
2023-01-31T02:41:28.914Z,5.40
2023-01-31T02:44:26.554Z,5.27
2023-01-31T02:47:31.604Z,6.03
2023-01-31T02:50:00.357Z,5.37
2023-01-31T02:52:38.476Z,5.93
2023-01-31T02:55:57.325Z,5.87
2023-01-31T02:58:27.520Z,4.77
2023-01-31T03:00:56.808Z,5.03
2023-01-31T03:03:26.071Z,4.70
2023-01-31T03:06:29.729Z,5.13
2023-01-31T03:09:22.102Z,5.00
2023-01-31T03:12:30.689Z,5.27
2023-01-31T03:15:13.628Z,5.40
2023-01-31T03:17:57.399Z,4.90
2023-01-31T03:20:33.222Z,5.27
2023-01-31T03:23:10.833Z,4.50
2023-01-31T03:25:38.409Z,4.27
2023-01-31T03:28:10.411Z,4.20
2023-01-31T03:30:52.220Z,4.13
2023-01-31T03:33:26.626Z,4.07
2023-01-31T03:36:18.053Z,3.83
2023-01-31T03:39:09.674Z,3.97
2023-01-31T03:41:59.782Z,4.10
2023-01-31T03:44:56.513Z,3.90
2023-01-31T03:47:36.614Z,4.77
2023-01-31T03:50:07.787Z,3.90
2023-01-31T03:52:39.063Z,3.90
2023-01-31T03:55:15.874Z,4.40
2023-01-31T03:57:43.206Z,4.57
2023-01-31T04:00:14.357Z,3.80
2023-01-31T04:02:41.516Z,3.73
2023-01-31T04:05:11.395Z,4.13
2023-01-31T04:07:38.424Z,4.10
2023-01-31T04:10:08.745Z,3.80
2023-01-31T04:12:37.227Z,3.40
2023-01-31T04:15:07.631Z,3.30
2023-01-31T04:17:34.463Z,3.93
2023-01-31T04:20:01.352Z,3.93
2023-01-31T04:22:28.016Z,3.90
2023-01-31T04:24:54.549Z,3.97
2023-01-31T04:27:21.027Z,3.57
2023-01-31T04:29:47.562Z,4.37
2023-01-31T04:32:14.068Z,3.77
2023-01-31T04:34:40.569Z,3.50
2023-01-31T04:37:07.098Z,3.30
2023-01-31T04:39:33.562Z,3.97
2023-01-31T04:42:00.064Z,3.80
2023-01-31T04:44:26.677Z,4.00
2023-01-31T04:46:53.173Z,3.70
2023-01-31T04:49:19.719Z,3.93
2023-01-31T04:51:46.243Z,3.47
2023-01-31T04:54:12.980Z,4.30
2023-01-31T04:56:39.476Z,4.13
2023-01-31T04:59:06.397Z,3.33
2023-01-31T05:01:32.951Z,3.97
2023-01-31T05:03:59.479Z,3.57
2023-01-31T05:06:26.118Z,4.20
2023-01-31T05:08:54.474Z,3.87
2023-01-31T05:11:21.013Z,4.40
2023-01-31T05:13:48.151Z,3.47
2023-01-31T05:16:14.658Z,3.73
2023-01-31T05:18:41.202Z,3.47
2023-01-31T05:21:08.240Z,3.73
2023-01-31T05:23:35.783Z,3.33
2023-01-31T05:26:03.566Z,4.37
2023-01-31T05:28:30.180Z,4.27
2023-01-31T05:31:03.106Z,2.70
2023-01-31T05:33:31.798Z,3.27
2023-01-31T05:35:58.837Z,3.10
2023-01-31T05:38:25.357Z,5.27
2023-01-31T05:40:52.009Z,3.47
2023-01-31T05:43:18.854Z,3.47
2023-01-31T05:45:47.582Z,2.87
2023-01-31T05:48:14.101Z,3.10
2023-01-31T05:50:40.660Z,4.23
2023-01-31T05:53:07.307Z,3.60
2023-01-31T05:55:33.817Z,3.40
2023-01-31T05:58:01.397Z,3.63
2023-01-31T06:00:28.103Z,3.60
2023-01-31T06:02:58.617Z,3.23
2023-01-31T06:05:25.219Z,3.60
2023-01-31T06:07:51.658Z,3.60
2023-01-31T06:10:20.174Z,4.80
2023-01-31T06:12:47.549Z,3.60
2023-01-31T06:15:14.036Z,3.40
2023-01-31T06:17:40.519Z,3.20
2023-01-31T06:20:07.361Z,3.77
2023-01-31T06:22:34.560Z,3.60
2023-01-31T06:25:01.034Z,3.17
2023-01-31T06:27:27.544Z,3.60
2023-01-31T06:29:53.983Z,2.83
2023-01-31T06:32:20.547Z,3.30
2023-01-31T06:34:47.053Z,3.40
2023-01-31T06:37:13.741Z,3.53
2023-01-31T06:39:40.343Z,3.07
2023-01-31T06:42:07.203Z,3.33
2023-01-31T06:44:34.016Z,3.30
2023-01-31T06:47:01.382Z,3.73
2023-01-31T06:49:27.890Z,3.97
2023-01-31T06:51:54.459Z,3.27
2023-01-31T06:54:21.157Z,3.53
2023-01-31T06:56:48.371Z,3.37
2023-01-31T06:59:14.873Z,3.70
2023-01-31T07:01:41.478Z,3.50
2023-01-31T07:04:08.055Z,3.20
2023-01-31T07:06:34.498Z,3.67
2023-01-31T07:09:01.065Z,3.40
2023-01-31T07:11:27.560Z,3.73
2023-01-31T07:13:54.129Z,3.50
2023-01-31T07:16:22.586Z,3.97
2023-01-31T07:18:52.635Z,3.73
2023-01-31T07:21:19.203Z,4.50
2023-01-31T07:23:46.334Z,3.57
2023-01-31T07:26:13.511Z,3.23
2023-01-31T07:28:40.243Z,3.97
2023-01-31T07:31:14.701Z,3.77
2023-01-31T07:33:41.973Z,3.40
2023-01-31T07:36:10.332Z,3.17
2023-01-31T07:38:36.880Z,2.93
2023-01-31T07:41:04.812Z,3.53
2023-01-31T07:43:32.531Z,3.27
2023-01-31T07:45:59.268Z,3.03
2023-01-31T07:48:25.943Z,3.10
2023-01-31T07:50:54.266Z,3.80
2023-01-31T07:53:20.714Z,3.33
2023-01-31T07:55:47.801Z,4.03
2023-01-31T07:58:15.365Z,4.37
2023-01-31T08:01:01.414Z,3.93
2023-01-31T08:03:33.449Z,2.80
2023-01-31T08:06:11.370Z,3.77
2023-01-31T08:08:38.835Z,3.03
2023-01-31T08:11:05.662Z,3.47
2023-01-31T08:13:33.876Z,3.37
2023-01-31T08:16:00.376Z,3.10
2023-01-31T08:18:26.982Z,3.67
2023-01-31T08:20:53.988Z,3.10
2023-01-31T08:23:20.632Z,4.17
2023-01-31T08:25:47.213Z,4.17
2023-01-31T08:28:13.855Z,2.90
2023-01-31T08:30:50.317Z,3.20
2023-01-31T08:33:22.871Z,3.20
2023-01-31T08:35:49.431Z,2.83
2023-01-31T08:38:16.879Z,3.33
2023-01-31T08:40:43.647Z,4.13
2023-01-31T08:43:10.333Z,3.67
2023-01-31T08:45:37.124Z,4.53
2023-01-31T08:48:03.960Z,5.20
2023-01-31T08:50:32.782Z,4.40
2023-01-31T08:53:04.328Z,3.60
2023-01-31T08:55:31.799Z,3.23
2023-01-31T08:58:00.280Z,4.50
2023-01-31T09:00:26.997Z,2.83
2023-01-31T09:02:58.595Z,3.40
2023-01-31T09:05:27.399Z,2.77
2023-01-31T09:07:54.502Z,3.13
2023-01-31T09:10:21.612Z,2.40
2023-01-31T09:12:48.517Z,3.00
2023-01-31T09:15:15.178Z,3.00
2023-01-31T09:17:42.839Z,2.40
2023-01-31T09:20:10.237Z,2.30
2023-01-31T09:22:37.382Z,3.07
2023-01-31T09:25:04.856Z,3.80
2023-01-31T09:27:31.430Z,2.50
2023-01-31T09:29:57.966Z,2.83
2023-01-31T09:32:24.473Z,2.63
2023-01-31T09:34:51.056Z,2.40
2023-01-31T09:37:17.648Z,2.67
2023-01-31T09:39:44.232Z,2.53
2023-01-31T09:42:23.913Z,2.17
2023-01-31T09:45:07.992Z,2.60
2023-01-31T09:47:38.805Z,2.37
2023-01-31T09:50:18.894Z,2.83
2023-01-31T09:52:45.596Z,2.87
2023-01-31T09:55:20.283Z,2.47
2023-01-31T09:58:11.775Z,3.13
2023-01-31T10:00:48.357Z,2.53
2023-01-31T10:04:08.977Z,3.10
2023-01-31T10:06:55.234Z,2.70
2023-01-31T10:09:27.341Z,2.53
2023-01-31T10:12:15.966Z,2.60
2023-01-31T10:14:50.504Z,3.00
2023-01-31T10:17:31.754Z,3.40
2023-01-31T10:20:03.609Z,3.40
2023-01-31T10:22:47.225Z,5.33
2023-01-31T10:25:27.042Z,3.27
2023-01-31T10:28:07.092Z,3.90
2023-01-31T10:31:07.686Z,2.83
2023-01-31T10:33:40.354Z,3.17
2023-01-31T10:36:14.366Z,4.33
2023-01-31T10:38:52.309Z,4.10
2023-01-31T10:41:25.144Z,3.00
2023-01-31T10:44:00.759Z,3.00
2023-01-31T10:46:27.730Z,2.70
2023-01-31T10:48:54.321Z,3.13
2023-01-31T10:51:36.099Z,3.10
2023-01-31T10:54:27.655Z,3.33
2023-01-31T10:56:54.284Z,2.57
2023-01-31T10:59:26.382Z,2.63
2023-01-31T11:01:53.215Z,2.27
2023-01-31T11:04:31.041Z,2.53
2023-01-31T11:07:00.093Z,2.23
2023-01-31T11:09:30.519Z,2.83
2023-01-31T11:12:02.002Z,2.37
2023-01-31T11:14:30.558Z,2.40
2023-01-31T11:17:07.094Z,1.70
2023-01-31T11:19:37.991Z,2.43
2023-01-31T11:22:05.243Z,2.50
2023-01-31T11:24:34.222Z,2.43
2023-01-31T11:27:07.130Z,2.10
2023-01-31T11:29:38.960Z,2.00
2023-01-31T11:32:14.761Z,2.70
2023-01-31T11:34:56.011Z,2.53
2023-01-31T11:37:22.755Z,2.00
2023-01-31T11:39:59.407Z,2.70
2023-01-31T11:42:26.451Z,1.80
2023-01-31T11:45:04.138Z,2.13
2023-01-31T11:47:46.543Z,2.30
2023-01-31T11:50:20.922Z,2.20
2023-01-31T11:52:54.558Z,2.50
2023-01-31T11:55:21.087Z,2.17
2023-01-31T11:57:47.655Z,2.73
2023-01-31T12:00:24.907Z,3.77
2023-01-31T12:02:59.994Z,8.67
2023-01-31T12:05:40.340Z,5.57
2023-01-31T12:08:27.861Z,3.93
2023-01-31T12:10:55.980Z,3.17
2023-01-31T12:13:23.923Z,3.50
2023-01-31T12:16:04.648Z,3.03
2023-01-31T12:18:48.293Z,3.07
2023-01-31T12:21:39.920Z,3.33
2023-01-31T12:24:28.823Z,3.10
2023-01-31T12:27:05.841Z,3.07
2023-01-31T12:29:56.000Z,2.37
2023-01-31T12:32:25.296Z,5.57
2023-01-31T12:35:19.397Z,4.57
2023-01-31T12:38:01.352Z,3.63
2023-01-31T12:40:39.088Z,3.30
2023-01-31T12:43:33.149Z,4.00
2023-01-31T12:46:09.941Z,3.63
2023-01-31T12:48:48.927Z,2.80
2023-01-31T12:51:21.580Z,2.77
2023-01-31T12:54:04.042Z,3.10
2023-01-31T12:56:52.162Z,2.97
2023-01-31T12:59:54.553Z,2.67
2023-01-31T13:02:58.002Z,2.97
2023-01-31T13:05:47.500Z,3.17
2023-01-31T13:08:17.822Z,2.60
2023-01-31T13:10:51.141Z,2.50
2023-01-31T13:13:37.476Z,3.17
2023-01-31T13:16:26.421Z,2.60
2023-01-31T13:18:55.202Z,2.03
2023-01-31T13:21:24.758Z,2.90
2023-01-31T13:23:55.278Z,3.03
2023-01-31T13:26:29.665Z,2.70
2023-01-31T13:29:13.746Z,2.83
2023-01-31T13:31:46.006Z,3.00
2023-01-31T13:34:23.589Z,3.13
2023-01-31T13:36:54.362Z,3.00
2023-01-31T13:39:31.601Z,2.90
2023-01-31T13:41:58.372Z,3.17
2023-01-31T13:44:24.841Z,3.47
2023-01-31T13:46:55.689Z,3.80
2023-01-31T13:49:29.642Z,3.03
2023-01-31T13:51:58.908Z,3.90
2023-01-31T13:54:25.386Z,2.80
2023-01-31T13:56:56.817Z,3.77
2023-01-31T13:59:26.398Z,3.77
2023-01-31T14:01:54.891Z,3.60
2023-01-31T14:04:26.116Z,3.87
2023-01-31T14:06:52.743Z,3.80
2023-01-31T14:09:23.053Z,3.20
2023-01-31T14:11:49.791Z,3.60
2023-01-31T14:14:33.782Z,4.97
2023-01-31T14:17:00.379Z,3.83
2023-01-31T14:19:48.164Z,4.60
2023-01-31T14:22:37.427Z,3.70
2023-01-31T14:25:05.391Z,3.60
2023-01-31T14:27:51.939Z,4.27
2023-01-31T14:30:31.394Z,4.23
2023-01-31T14:33:12.969Z,4.30
2023-01-31T14:36:05.457Z,5.03
2023-01-31T14:39:00.388Z,4.23
2023-01-31T14:41:51.582Z,4.87
2023-01-31T14:44:33.066Z,5.13
2023-01-31T14:47:17.680Z,4.30
2023-01-31T14:49:49.746Z,4.50
2023-01-31T14:52:20.470Z,4.53
2023-01-31T14:55:09.157Z,4.50
2023-01-31T14:57:42.860Z,4.27
2023-01-31T15:00:15.558Z,4.47
2023-01-31T15:02:57.382Z,4.77
2023-01-31T15:05:33.233Z,4.83
2023-01-31T15:08:12.025Z,4.83
2023-01-31T15:11:20.889Z,4.17
2023-01-31T15:13:50.858Z,4.53
2023-01-31T15:16:24.341Z,3.70
2023-01-31T15:18:55.959Z,4.50
2023-01-31T15:21:30.220Z,4.27
2023-01-31T15:23:57.879Z,4.50
2023-01-31T15:26:27.271Z,3.70
2023-01-31T15:28:53.963Z,3.40
2023-01-31T15:31:31.552Z,4.13
2023-01-31T15:34:03.259Z,3.93
2023-01-31T15:36:33.898Z,3.87
2023-01-31T15:39:20.573Z,4.73
2023-01-31T15:41:47.159Z,3.97
2023-01-31T15:44:21.503Z,4.83
2023-01-31T15:46:50.975Z,5.03
2023-01-31T15:49:40.091Z,4.97
2023-01-31T15:52:22.889Z,5.67
2023-01-31T15:54:54.747Z,6.57
2023-01-31T15:57:23.078Z,7.77
2023-01-31T15:59:49.830Z,8.03
2023-01-31T16:02:31.193Z,8.33
2023-01-31T16:04:58.009Z,7.77
2023-01-31T16:07:31.213Z,8.13
2023-01-31T16:09:59.424Z,8.07
2023-01-31T16:12:26.189Z,7.70
2023-01-31T16:14:59.058Z,9.00
2023-01-31T16:17:28.673Z,8.17
2023-01-31T16:19:55.285Z,9.63
2023-01-31T16:22:30.975Z,8.73
2023-01-31T16:25:00.155Z,8.37
2023-01-31T16:27:33.026Z,7.70
2023-01-31T16:30:00.404Z,8.10
2023-01-31T16:32:32.320Z,7.90
2023-01-31T16:35:07.614Z,7.53
2023-01-31T16:37:35.274Z,6.90
2023-01-31T16:40:25.304Z,7.10
2023-01-31T16:43:12.875Z,7.20
2023-01-31T16:45:57.195Z,7.63
2023-01-31T16:48:27.772Z,8.53
2023-01-31T16:50:57.028Z,11.70
2023-01-31T16:53:34.541Z,9.90
2023-01-31T16:56:13.232Z,8.90
2023-01-31T16:58:44.753Z,8.30
2023-01-31T17:01:14.089Z,7.40
2023-01-31T17:03:40.778Z,7.87
2023-01-31T17:06:07.967Z,7.47
2023-01-31T17:08:40.577Z,8.10
2023-01-31T17:11:10.835Z,9.70
2023-01-31T17:13:38.612Z,8.77
2023-01-31T17:16:27.167Z,8.87
2023-01-31T17:18:54.902Z,8.47
2023-01-31T17:21:22.797Z,7.43
2023-01-31T17:23:49.428Z,7.93
2023-01-31T17:26:21.656Z,6.63
2023-01-31T17:29:00.917Z,7.30
2023-01-31T17:31:29.621Z,6.67
2023-01-31T17:33:56.334Z,6.27
2023-01-31T17:36:22.984Z,5.47
2023-01-31T17:38:51.288Z,6.13
2023-01-31T17:41:19.661Z,6.97
2023-01-31T17:43:46.486Z,6.70
2023-01-31T17:46:14.690Z,8.50
2023-01-31T17:48:41.717Z,6.90
2023-01-31T17:51:08.874Z,7.13
2023-01-31T17:53:47.728Z,7.00
2023-01-31T17:56:16.442Z,7.67
2023-01-31T17:58:42.979Z,7.77
2023-01-31T18:01:10.857Z,6.97
2023-01-31T18:03:37.398Z,8.10
2023-01-31T18:06:06.444Z,8.17
2023-01-31T18:08:33.628Z,7.23
2023-01-31T18:11:18.173Z,6.93
2023-01-31T18:13:45.501Z,8.17
2023-01-31T18:16:18.317Z,7.50
2023-01-31T18:18:45.009Z,8.33
2023-01-31T18:21:13.891Z,7.77
2023-01-31T18:23:40.627Z,8.20
2023-01-31T18:26:08.523Z,7.87
2023-01-31T18:28:35.245Z,7.50
2023-01-31T18:31:08.169Z,6.77
2023-01-31T18:33:34.941Z,7.87
2023-01-31T18:36:01.951Z,8.77
2023-01-31T18:38:29.660Z,8.03
2023-01-31T18:40:56.545Z,8.43
2023-01-31T18:43:23.453Z,8.50
2023-01-31T18:45:49.973Z,9.63
2023-01-31T18:48:16.467Z,10.13
2023-01-31T18:50:43.209Z,10.73
2023-01-31T18:53:09.753Z,10.37
2023-01-31T18:55:36.253Z,10.37
2023-01-31T18:58:02.820Z,11.43
2023-01-31T19:00:29.549Z,12.03
2023-01-31T19:02:56.080Z,10.80
2023-01-31T19:05:23.736Z,11.53
2023-01-31T19:07:50.483Z,12.17
2023-01-31T19:10:17.424Z,11.60
2023-01-31T19:12:43.964Z,11.03
2023-01-31T19:15:13.500Z,11.73
2023-01-31T19:17:40.313Z,12.17
2023-01-31T19:20:07.435Z,12.33
2023-01-31T19:22:34.166Z,11.37
2023-01-31T19:25:00.871Z,13.53
2023-01-31T19:27:27.422Z,12.93
2023-01-31T19:29:53.926Z,12.27
2023-01-31T19:32:22.412Z,12.93
2023-01-31T19:34:49.009Z,12.93
2023-01-31T19:37:15.629Z,13.20
2023-01-31T19:39:42.190Z,13.43
2023-01-31T19:42:08.739Z,13.33
2023-01-31T19:44:35.340Z,13.33
2023-01-31T19:47:02.017Z,12.37
2023-01-31T19:49:28.780Z,12.97
2023-01-31T19:51:55.719Z,12.33
2023-01-31T19:54:22.736Z,12.47
2023-01-31T19:56:49.284Z,12.80
2023-01-31T19:59:15.946Z,13.63
2023-01-31T20:01:42.559Z,12.37
2023-01-31T20:04:09.267Z,13.43
2023-01-31T20:06:35.968Z,12.90
2023-01-31T20:09:07.469Z,12.23
2023-01-31T20:11:34.939Z,12.63
2023-01-31T20:14:01.639Z,11.27
2023-01-31T20:16:28.350Z,11.70
2023-01-31T20:18:56.231Z,11.80
2023-01-31T20:21:23.482Z,10.80
2023-01-31T20:23:50.100Z,11.40
2023-01-31T20:26:18.350Z,10.93
2023-01-31T20:28:44.946Z,11.30
2023-01-31T20:31:14.286Z,10.83
2023-01-31T20:33:41.149Z,10.17
2023-01-31T20:36:08.131Z,11.40
2023-01-31T20:38:34.839Z,10.43
2023-01-31T20:41:01.489Z,11.37
2023-01-31T20:43:28.134Z,11.07
2023-01-31T20:46:05.274Z,11.10
2023-01-31T20:48:31.882Z,11.47
2023-01-31T20:50:58.841Z,10.37
2023-01-31T20:53:28.599Z,10.70
2023-01-31T20:56:06.815Z,10.37
2023-01-31T20:58:36.147Z,9.83
2023-01-31T21:01:05.864Z,10.33
2023-01-31T21:03:33.360Z,11.80
2023-01-31T21:06:00.394Z,10.50
2023-01-31T21:08:27.887Z,9.33
2023-01-31T21:10:56.604Z,10.07
2023-01-31T21:13:24.056Z,10.60
2023-01-31T21:15:54.100Z,10.70
2023-01-31T21:18:21.232Z,10.80
2023-01-31T21:20:49.320Z,10.50
2023-01-31T21:23:16.212Z,11.87
2023-01-31T21:25:42.842Z,12.03
2023-01-31T21:28:09.607Z,11.30
2023-01-31T21:30:36.665Z,11.53
2023-01-31T21:33:03.511Z,11.50
2023-01-31T21:35:30.347Z,12.40
2023-01-31T21:37:56.909Z,10.37
2023-01-31T21:40:23.650Z,11.10
2023-01-31T21:42:54.300Z,12.23
2023-01-31T21:45:39.673Z,10.93
2023-01-31T21:48:27.342Z,11.57
2023-01-31T21:50:54.399Z,10.40
2023-01-31T21:53:20.972Z,11.20
2023-01-31T21:55:47.733Z,11.27
2023-01-31T21:58:14.417Z,10.27
2023-01-31T22:00:43.713Z,10.67
2023-01-31T22:03:10.825Z,10.30
2023-01-31T22:05:37.282Z,10.80
2023-01-31T22:08:03.780Z,10.97
2023-01-31T22:10:30.318Z,10.80
2023-01-31T22:12:56.763Z,11.30
2023-01-31T22:15:23.217Z,10.70
2023-01-31T22:17:49.708Z,11.83
2023-01-31T22:20:16.559Z,11.23
2023-01-31T22:22:44.096Z,11.47
2023-01-31T22:25:10.879Z,11.13
2023-01-31T22:27:37.339Z,12.10
2023-01-31T22:30:15.703Z,11.20
2023-01-31T22:32:43.267Z,11.40
2023-01-31T22:35:10.012Z,10.83
2023-01-31T22:37:36.553Z,11.23
2023-01-31T22:40:03.190Z,10.53
2023-01-31T22:42:29.654Z,10.97
2023-01-31T22:44:56.111Z,11.93
2023-01-31T22:47:22.616Z,11.73
2023-01-31T22:49:49.069Z,11.70
2023-01-31T22:52:15.515Z,11.40
2023-01-31T22:54:42.009Z,11.17
2023-01-31T22:57:08.488Z,12.10
2023-01-31T22:59:34.949Z,11.97
2023-01-31T23:02:01.449Z,12.63
2023-01-31T23:04:27.996Z,12.93
2023-01-31T23:06:54.497Z,12.33
2023-01-31T23:09:22.123Z,12.27
2023-01-31T23:11:48.715Z,11.53
2023-01-31T23:14:15.181Z,12.43
2023-01-31T23:17:00.379Z,12.77
2023-01-31T23:19:27.072Z,13.00
2023-01-31T23:21:53.534Z,12.83
2023-01-31T23:24:20.073Z,13.37
2023-01-31T23:26:46.663Z,14.90
2023-01-31T23:29:13.198Z,13.53
2023-01-31T23:31:40.098Z,12.77
2023-01-31T23:34:07.581Z,13.37
2023-01-31T23:36:34.307Z,12.80
2023-01-31T23:39:00.787Z,12.63
2023-01-31T23:41:27.277Z,12.10
2023-01-31T23:43:53.721Z,11.27
2023-01-31T23:46:20.266Z,11.03
2023-01-31T23:48:46.984Z,10.90
2023-01-31T23:51:13.463Z,9.97
2023-01-31T23:53:39.902Z,10.27
2023-01-31T23:56:06.920Z,9.73
2023-01-31T23:58:33.466Z,10.47
